sensor_id;sensor_type;location;lat;lon;timestamp;temperature;humidity
15574;DHT22;7888;46.748;8.102;2023-10-09T00:01:07;19.70;43.90
15574;DHT22;7888;46.748;8.102;2023-10-09T00:03:40;19.70;44.60
15574;DHT22;7888;46.748;8.102;2023-10-09T00:06:10;19.60;43.90
15574;DHT22;7888;46.748;8.102;2023-10-09T00:08:39;19.60;44.00
15574;DHT22;7888;46.748;8.102;2023-10-09T00:11:09;19.60;44.10
15574;DHT22;7888;46.748;8.102;2023-10-09T00:13:46;19.60;44.50
15574;DHT22;7888;46.748;8.102;2023-10-09T00:16:21;19.60;44.50
15574;DHT22;7888;46.748;8.102;2023-10-09T00:19:04;19.60;44.70
15574;DHT22;7888;46.748;8.102;2023-10-09T00:21:52;19.60;44.50
15574;DHT22;7888;46.748;8.102;2023-10-09T00:24:20;19.50;44.50
15574;DHT22;7888;46.748;8.102;2023-10-09T00:26:53;19.50;44.60
15574;DHT22;7888;46.748;8.102;2023-10-09T00:29:27;19.50;44.40
15574;DHT22;7888;46.748;8.102;2023-10-09T00:32:01;19.40;44.30
15574;DHT22;7888;46.748;8.102;2023-10-09T00:34:39;19.40;44.30
15574;DHT22;7888;46.748;8.102;2023-10-09T00:37:06;19.40;44.20
15574;DHT22;7888;46.748;8.102;2023-10-09T00:39:42;19.40;44.30
15574;DHT22;7888;46.748;8.102;2023-10-09T00:42:12;19.30;44.30
15574;DHT22;7888;46.748;8.102;2023-10-09T00:44:40;19.30;44.70
15574;DHT22;7888;46.748;8.102;2023-10-09T00:47:12;19.30;44.70
15574;DHT22;7888;46.748;8.102;2023-10-09T00:50:03;19.30;44.90
15574;DHT22;7888;46.748;8.102;2023-10-09T00:52:41;19.30;44.70
15574;DHT22;7888;46.748;8.102;2023-10-09T00:55:14;19.20;44.50
15574;DHT22;7888;46.748;8.102;2023-10-09T00:57:47;19.20;44.60
15574;DHT22;7888;46.748;8.102;2023-10-09T01:00:16;19.20;44.70
15574;DHT22;7888;46.748;8.102;2023-10-09T01:03:04;19.20;44.70
15574;DHT22;7888;46.748;8.102;2023-10-09T01:05:53;19.10;44.90
15574;DHT22;7888;46.748;8.102;2023-10-09T01:08:25;19.10;44.90
15574;DHT22;7888;46.748;8.102;2023-10-09T01:10:58;19.00;44.70
15574;DHT22;7888;46.748;8.102;2023-10-09T01:13:50;19.10;44.60
15574;DHT22;7888;46.748;8.102;2023-10-09T01:16:17;19.00;44.50
15574;DHT22;7888;46.748;8.102;2023-10-09T01:18:49;19.00;44.60
15574;DHT22;7888;46.748;8.102;2023-10-09T01:21:17;19.00;44.70
15574;DHT22;7888;46.748;8.102;2023-10-09T01:23:48;19.00;44.80
15574;DHT22;7888;46.748;8.102;2023-10-09T01:26:38;18.90;44.90
15574;DHT22;7888;46.748;8.102;2023-10-09T01:29:08;19.00;44.90
15574;DHT22;7888;46.748;8.102;2023-10-09T01:31:42;18.90;45.20
15574;DHT22;7888;46.748;8.102;2023-10-09T01:34:24;18.90;44.90
15574;DHT22;7888;46.748;8.102;2023-10-09T01:37:04;18.90;45.00
15574;DHT22;7888;46.748;8.102;2023-10-09T01:39:40;18.90;44.90
15574;DHT22;7888;46.748;8.102;2023-10-09T01:42:07;18.90;44.80
15574;DHT22;7888;46.748;8.102;2023-10-09T01:44:33;18.80;44.80
15574;DHT22;7888;46.748;8.102;2023-10-09T01:47:08;18.80;45.00
15574;DHT22;7888;46.748;8.102;2023-10-09T01:49:39;18.80;45.00
15574;DHT22;7888;46.748;8.102;2023-10-09T01:52:12;18.80;45.00
15574;DHT22;7888;46.748;8.102;2023-10-09T01:54:50;18.80;44.90
15574;DHT22;7888;46.748;8.102;2023-10-09T01:57:19;18.80;45.10
15574;DHT22;7888;46.748;8.102;2023-10-09T01:59:49;18.70;45.00
15574;DHT22;7888;46.748;8.102;2023-10-09T02:02:19;18.70;45.10
15574;DHT22;7888;46.748;8.102;2023-10-09T02:05:05;18.70;45.50
15574;DHT22;7888;46.748;8.102;2023-10-09T02:07:35;18.70;45.30
15574;DHT22;7888;46.748;8.102;2023-10-09T02:10:11;18.70;45.20
15574;DHT22;7888;46.748;8.102;2023-10-09T02:12:52;18.70;45.40
15574;DHT22;7888;46.748;8.102;2023-10-09T02:15:29;18.70;45.50
15574;DHT22;7888;46.748;8.102;2023-10-09T02:18:21;18.60;45.50
15574;DHT22;7888;46.748;8.102;2023-10-09T02:20:52;18.60;45.40
15574;DHT22;7888;46.748;8.102;2023-10-09T02:23:25;18.60;45.40
15574;DHT22;7888;46.748;8.102;2023-10-09T02:26:05;18.50;45.40
15574;DHT22;7888;46.748;8.102;2023-10-09T02:28:35;18.50;45.30
15574;DHT22;7888;46.748;8.102;2023-10-09T02:31:11;18.50;45.40
15574;DHT22;7888;46.748;8.102;2023-10-09T02:33:38;18.50;45.40
15574;DHT22;7888;46.748;8.102;2023-10-09T02:36:07;18.50;45.40
15574;DHT22;7888;46.748;8.102;2023-10-09T02:38:33;18.50;45.30
15574;DHT22;7888;46.748;8.102;2023-10-09T02:41:03;18.40;45.20
15574;DHT22;7888;46.748;8.102;2023-10-09T02:43:33;18.40;45.30
15574;DHT22;7888;46.748;8.102;2023-10-09T02:48:49;18.40;45.20
15574;DHT22;7888;46.748;8.102;2023-10-09T02:51:22;18.40;45.20
15574;DHT22;7888;46.748;8.102;2023-10-09T02:53:56;18.40;45.40
15574;DHT22;7888;46.748;8.102;2023-10-09T02:56:24;18.40;45.40
15574;DHT22;7888;46.748;8.102;2023-10-09T02:59:09;18.30;45.50
15574;DHT22;7888;46.748;8.102;2023-10-09T03:01:38;18.30;45.40
15574;DHT22;7888;46.748;8.102;2023-10-09T03:04:05;18.30;45.30
15574;DHT22;7888;46.748;8.102;2023-10-09T03:06:32;18.30;45.20
15574;DHT22;7888;46.748;8.102;2023-10-09T03:09:03;18.30;45.50
15574;DHT22;7888;46.748;8.102;2023-10-09T03:11:47;18.30;45.40
15574;DHT22;7888;46.748;8.102;2023-10-09T03:14:21;18.30;46.00
15574;DHT22;7888;46.748;8.102;2023-10-09T03:16:52;18.30;45.40
15574;DHT22;7888;46.748;8.102;2023-10-09T03:19:18;18.20;45.20
15574;DHT22;7888;46.748;8.102;2023-10-09T03:21:44;18.20;45.30
15574;DHT22;7888;46.748;8.102;2023-10-09T03:24:10;18.20;45.50
15574;DHT22;7888;46.748;8.102;2023-10-09T03:26:37;18.20;45.40
15574;DHT22;7888;46.748;8.102;2023-10-09T03:29:03;18.20;45.30
15574;DHT22;7888;46.748;8.102;2023-10-09T03:31:38;18.10;46.00
15574;DHT22;7888;46.748;8.102;2023-10-09T03:34:05;18.20;45.70
15574;DHT22;7888;46.748;8.102;2023-10-09T03:36:31;18.10;45.50
15574;DHT22;7888;46.748;8.102;2023-10-09T03:39:03;18.10;45.50
15574;DHT22;7888;46.748;8.102;2023-10-09T03:41:58;18.10;45.50
15574;DHT22;7888;46.748;8.102;2023-10-09T03:44:25;18.10;45.50
15574;DHT22;7888;46.748;8.102;2023-10-09T03:46:54;18.10;45.60
15574;DHT22;7888;46.748;8.102;2023-10-09T03:49:20;18.10;45.70
15574;DHT22;7888;46.748;8.102;2023-10-09T03:51:52;18.10;45.80
15574;DHT22;7888;46.748;8.102;2023-10-09T03:54:18;18.10;46.20
15574;DHT22;7888;46.748;8.102;2023-10-09T03:56:46;18.00;45.40
15574;DHT22;7888;46.748;8.102;2023-10-09T03:59:18;18.00;45.60
15574;DHT22;7888;46.748;8.102;2023-10-09T04:01:48;18.00;45.80
15574;DHT22;7888;46.748;8.102;2023-10-09T04:04:16;17.90;45.60
15574;DHT22;7888;46.748;8.102;2023-10-09T04:06:42;17.90;45.50
15574;DHT22;7888;46.748;8.102;2023-10-09T04:09:09;17.90;45.80
15574;DHT22;7888;46.748;8.102;2023-10-09T04:11:50;17.90;45.60
15574;DHT22;7888;46.748;8.102;2023-10-09T04:14:42;17.90;46.40
15574;DHT22;7888;46.748;8.102;2023-10-09T04:17:21;17.90;45.70
15574;DHT22;7888;46.748;8.102;2023-10-09T04:20:00;17.80;45.80
15574;DHT22;7888;46.748;8.102;2023-10-09T04:22:41;17.80;45.70
15574;DHT22;7888;46.748;8.102;2023-10-09T04:25:22;17.80;45.60
15574;DHT22;7888;46.748;8.102;2023-10-09T04:27:58;17.80;46.00
15574;DHT22;7888;46.748;8.102;2023-10-09T04:30:48;17.80;46.00
15574;DHT22;7888;46.748;8.102;2023-10-09T04:33:21;17.80;45.70
15574;DHT22;7888;46.748;8.102;2023-10-09T04:36:05;17.80;45.60
15574;DHT22;7888;46.748;8.102;2023-10-09T04:38:44;17.70;45.70
15574;DHT22;7888;46.748;8.102;2023-10-09T04:41:30;17.80;45.70
15574;DHT22;7888;46.748;8.102;2023-10-09T04:44:11;17.70;45.50
15574;DHT22;7888;46.748;8.102;2023-10-09T04:46:59;17.70;45.60
15574;DHT22;7888;46.748;8.102;2023-10-09T04:49:35;17.70;45.60
15574;DHT22;7888;46.748;8.102;2023-10-09T04:52:16;17.70;45.60
15574;DHT22;7888;46.748;8.102;2023-10-09T04:54:55;17.70;45.60
15574;DHT22;7888;46.748;8.102;2023-10-09T04:57:37;17.70;45.50
15574;DHT22;7888;46.748;8.102;2023-10-09T05:00:13;17.70;45.90
15574;DHT22;7888;46.748;8.102;2023-10-09T05:02:54;17.70;46.40
15574;DHT22;7888;46.748;8.102;2023-10-09T05:05:22;17.70;46.40
15574;DHT22;7888;46.748;8.102;2023-10-09T05:08:09;17.60;46.10
15574;DHT22;7888;46.748;8.102;2023-10-09T05:10:48;17.60;46.00
15574;DHT22;7888;46.748;8.102;2023-10-09T05:13:32;17.60;46.00
15574;DHT22;7888;46.748;8.102;2023-10-09T05:16:15;17.60;45.90
15574;DHT22;7888;46.748;8.102;2023-10-09T05:18:49;17.60;45.90
15574;DHT22;7888;46.748;8.102;2023-10-09T05:21:35;17.60;45.80
15574;DHT22;7888;46.748;8.102;2023-10-09T05:24:11;17.60;46.00
15574;DHT22;7888;46.748;8.102;2023-10-09T05:26:41;17.60;46.00
15574;DHT22;7888;46.748;8.102;2023-10-09T05:29:25;17.60;45.90
15574;DHT22;7888;46.748;8.102;2023-10-09T05:31:58;17.50;45.80
15574;DHT22;7888;46.748;8.102;2023-10-09T05:34:44;17.60;45.90
15574;DHT22;7888;46.748;8.102;2023-10-09T05:37:26;17.50;45.80
15574;DHT22;7888;46.748;8.102;2023-10-09T05:40:03;17.50;45.80
15574;DHT22;7888;46.748;8.102;2023-10-09T05:42:48;17.50;46.00
15574;DHT22;7888;46.748;8.102;2023-10-09T05:45:25;17.50;45.90
15574;DHT22;7888;46.748;8.102;2023-10-09T05:48:10;17.50;46.10
15574;DHT22;7888;46.748;8.102;2023-10-09T05:50:39;17.50;46.20
15574;DHT22;7888;46.748;8.102;2023-10-09T05:53:23;17.50;46.30
15574;DHT22;7888;46.748;8.102;2023-10-09T05:56:12;17.50;46.20
15574;DHT22;7888;46.748;8.102;2023-10-09T05:58:56;17.50;46.20
15574;DHT22;7888;46.748;8.102;2023-10-09T06:01:31;17.50;46.10
15574;DHT22;7888;46.748;8.102;2023-10-09T06:04:16;17.50;46.90
15574;DHT22;7888;46.748;8.102;2023-10-09T06:06:43;17.40;46.40
15574;DHT22;7888;46.748;8.102;2023-10-09T06:09:11;17.50;46.30
15574;DHT22;7888;46.748;8.102;2023-10-09T06:11:41;17.50;46.50
15574;DHT22;7888;46.748;8.102;2023-10-09T06:14:18;17.50;46.30
15574;DHT22;7888;46.748;8.102;2023-10-09T06:17:08;17.50;46.30
15574;DHT22;7888;46.748;8.102;2023-10-09T06:19:49;17.50;46.30
15574;DHT22;7888;46.748;8.102;2023-10-09T06:22:24;17.50;46.40
15574;DHT22;7888;46.748;8.102;2023-10-09T06:25:16;17.50;46.30
15574;DHT22;7888;46.748;8.102;2023-10-09T06:27:44;17.60;46.30
15574;DHT22;7888;46.748;8.102;2023-10-09T06:30:22;17.60;46.60
15574;DHT22;7888;46.748;8.102;2023-10-09T06:32:52;17.60;46.70
15574;DHT22;7888;46.748;8.102;2023-10-09T06:35:34;17.60;46.80
15574;DHT22;7888;46.748;8.102;2023-10-09T06:38:01;17.70;46.90
15574;DHT22;7888;46.748;8.102;2023-10-09T06:40:28;17.70;47.20
15574;DHT22;7888;46.748;8.102;2023-10-09T06:43:13;17.80;47.30
15574;DHT22;7888;46.748;8.102;2023-10-09T06:45:48;17.80;47.50
15574;DHT22;7888;46.748;8.102;2023-10-09T06:48:52;17.90;47.70
15574;DHT22;7888;46.748;8.102;2023-10-09T06:51:40;18.00;47.70
15574;DHT22;7888;46.748;8.102;2023-10-09T06:54:06;18.10;47.90
15574;DHT22;7888;46.748;8.102;2023-10-09T06:56:35;18.10;47.90
15574;DHT22;7888;46.748;8.102;2023-10-09T06:59:05;18.20;48.00
15574;DHT22;7888;46.748;8.102;2023-10-09T07:01:40;18.30;48.30
15574;DHT22;7888;46.748;8.102;2023-10-09T07:04:10;18.40;48.20
15574;DHT22;7888;46.748;8.102;2023-10-09T07:07:06;18.50;48.30
15574;DHT22;7888;46.748;8.102;2023-10-09T07:09:38;18.60;48.20
15574;DHT22;7888;46.748;8.102;2023-10-09T07:12:24;18.70;48.30
15574;DHT22;7888;46.748;8.102;2023-10-09T07:14:52;18.80;48.30
15574;DHT22;7888;46.748;8.102;2023-10-09T07:17:21;18.90;48.40
15574;DHT22;7888;46.748;8.102;2023-10-09T07:19:59;19.00;48.30
15574;DHT22;7888;46.748;8.102;2023-10-09T07:22:35;19.10;48.40
15574;DHT22;7888;46.748;8.102;2023-10-09T07:25:05;19.20;48.50
15574;DHT22;7888;46.748;8.102;2023-10-09T07:27:53;19.30;48.40
15574;DHT22;7888;46.748;8.102;2023-10-09T07:30:21;19.40;48.30
15574;DHT22;7888;46.748;8.102;2023-10-09T07:33:02;19.50;48.10
15574;DHT22;7888;46.748;8.102;2023-10-09T07:35:40;19.70;48.20
15574;DHT22;7888;46.748;8.102;2023-10-09T07:38:08;19.80;48.10
15574;DHT22;7888;46.748;8.102;2023-10-09T07:40:40;19.90;48.20
15574;DHT22;7888;46.748;8.102;2023-10-09T07:43:29;20.00;48.30
15574;DHT22;7888;46.748;8.102;2023-10-09T07:46:05;20.20;47.80
15574;DHT22;7888;46.748;8.102;2023-10-09T07:48:51;20.30;47.60
15574;DHT22;7888;46.748;8.102;2023-10-09T07:51:20;20.40;47.70
15574;DHT22;7888;46.748;8.102;2023-10-09T07:53:56;20.50;47.90
15574;DHT22;7888;46.748;8.102;2023-10-09T07:56:26;20.60;48.00
15574;DHT22;7888;46.748;8.102;2023-10-09T07:58:56;20.70;48.10
15574;DHT22;7888;46.748;8.102;2023-10-09T08:01:26;20.80;48.00
15574;DHT22;7888;46.748;8.102;2023-10-09T08:03:51;20.90;47.90
15574;DHT22;7888;46.748;8.102;2023-10-09T08:06:27;21.10;47.80
15574;DHT22;7888;46.748;8.102;2023-10-09T08:09:12;21.20;47.70
15574;DHT22;7888;46.748;8.102;2023-10-09T08:11:39;21.40;47.50
15574;DHT22;7888;46.748;8.102;2023-10-09T08:14:40;21.50;47.10
15574;DHT22;7888;46.748;8.102;2023-10-09T08:17:08;21.70;47.10
15574;DHT22;7888;46.748;8.102;2023-10-09T08:19:42;21.80;46.90
15574;DHT22;7888;46.748;8.102;2023-10-09T08:22:21;21.90;46.90
15574;DHT22;7888;46.748;8.102;2023-10-09T08:24:54;22.00;46.60
15574;DHT22;7888;46.748;8.102;2023-10-09T08:27:26;22.10;46.40
15574;DHT22;7888;46.748;8.102;2023-10-09T08:30:12;22.20;46.30
15574;DHT22;7888;46.748;8.102;2023-10-09T08:32:50;22.40;46.40
15574;DHT22;7888;46.748;8.102;2023-10-09T08:35:34;22.50;46.10
15574;DHT22;7888;46.748;8.102;2023-10-09T08:38:08;22.70;46.10
15574;DHT22;7888;46.748;8.102;2023-10-09T08:40:35;22.80;46.00
15574;DHT22;7888;46.748;8.102;2023-10-09T08:43:24;22.90;46.00
15574;DHT22;7888;46.748;8.102;2023-10-09T08:45:53;23.10;45.80
15574;DHT22;7888;46.748;8.102;2023-10-09T08:48:26;23.20;45.30
15574;DHT22;7888;46.748;8.102;2023-10-09T08:50:55;23.30;45.30
15574;DHT22;7888;46.748;8.102;2023-10-09T08:53:22;23.30;45.30
15574;DHT22;7888;46.748;8.102;2023-10-09T08:55:50;23.30;45.30
15574;DHT22;7888;46.748;8.102;2023-10-09T08:58:17;23.40;45.30
15574;DHT22;7888;46.748;8.102;2023-10-09T09:00:50;23.40;44.40
15574;DHT22;7888;46.748;8.102;2023-10-09T09:03:18;23.50;44.40
15574;DHT22;7888;46.748;8.102;2023-10-09T09:05:58;23.60;44.00
15574;DHT22;7888;46.748;8.102;2023-10-09T09:08:30;23.70;44.10
15574;DHT22;7888;46.748;8.102;2023-10-09T09:11:08;23.90;43.40
15574;DHT22;7888;46.748;8.102;2023-10-09T09:13:45;24.00;42.90
15574;DHT22;7888;46.748;8.102;2023-10-09T09:16:16;24.10;42.90
15574;DHT22;7888;46.748;8.102;2023-10-09T09:19:09;24.30;43.00
15574;DHT22;7888;46.748;8.102;2023-10-09T09:24:07;24.60;42.70
15574;DHT22;7888;46.748;8.102;2023-10-09T09:26:48;24.70;42.80
15574;DHT22;7888;46.748;8.102;2023-10-09T09:29:37;24.80;42.30
15574;DHT22;7888;46.748;8.102;2023-10-09T09:32:04;24.90;42.40
15574;DHT22;7888;46.748;8.102;2023-10-09T09:37:32;25.00;42.20
15574;DHT22;7888;46.748;8.102;2023-10-09T09:40:19;25.10;42.40
15574;DHT22;7888;46.748;8.102;2023-10-09T09:43:00;25.10;42.30
15574;DHT22;7888;46.748;8.102;2023-10-09T09:45:37;25.20;42.30
15574;DHT22;7888;46.748;8.102;2023-10-09T09:48:07;25.30;42.50
15574;DHT22;7888;46.748;8.102;2023-10-09T09:50:36;25.40;42.40
15574;DHT22;7888;46.748;8.102;2023-10-09T09:53:15;25.50;42.50
15574;DHT22;7888;46.748;8.102;2023-10-09T09:55:51;25.60;42.40
15574;DHT22;7888;46.748;8.102;2023-10-09T09:58:25;25.60;42.10
15574;DHT22;7888;46.748;8.102;2023-10-09T10:01:09;25.60;42.00
15574;DHT22;7888;46.748;8.102;2023-10-09T10:03:46;25.60;41.90
15574;DHT22;7888;46.748;8.102;2023-10-09T10:06:19;25.70;41.70
15574;DHT22;7888;46.748;8.102;2023-10-09T10:08:47;25.70;41.90
15574;DHT22;7888;46.748;8.102;2023-10-09T10:11:45;25.70;41.80
15574;DHT22;7888;46.748;8.102;2023-10-09T10:14:17;25.70;41.40
15574;DHT22;7888;46.748;8.102;2023-10-09T10:17:03;25.80;41.60
15574;DHT22;7888;46.748;8.102;2023-10-09T10:22:27;26.10;40.70
15574;DHT22;7888;46.748;8.102;2023-10-09T10:24:53;26.20;41.00
15574;DHT22;7888;46.748;8.102;2023-10-09T10:27:23;26.30;40.50
15574;DHT22;7888;46.748;8.102;2023-10-09T10:32:53;26.60;39.70
15574;DHT22;7888;46.748;8.102;2023-10-09T10:35:20;26.80;39.70
15574;DHT22;7888;46.748;8.102;2023-10-09T10:37:58;26.90;40.10
15574;DHT22;7888;46.748;8.102;2023-10-09T10:40:33;27.00;40.00
15574;DHT22;7888;46.748;8.102;2023-10-09T10:43:05;27.20;39.90
15574;DHT22;7888;46.748;8.102;2023-10-09T10:46:06;27.30;40.00
15574;DHT22;7888;46.748;8.102;2023-10-09T10:48:39;27.50;39.30
15574;DHT22;7888;46.748;8.102;2023-10-09T10:51:12;27.60;39.00
15574;DHT22;7888;46.748;8.102;2023-10-09T10:53:53;27.80;39.00
15574;DHT22;7888;46.748;8.102;2023-10-09T10:56:25;27.90;38.10
15574;DHT22;7888;46.748;8.102;2023-10-09T10:59:01;28.10;38.70
15574;DHT22;7888;46.748;8.102;2023-10-09T11:01:33;28.20;38.30
15574;DHT22;7888;46.748;8.102;2023-10-09T11:04:21;28.40;37.80
15574;DHT22;7888;46.748;8.102;2023-10-09T11:07:09;28.50;38.20
15574;DHT22;7888;46.748;8.102;2023-10-09T11:09:55;28.70;38.10
15574;DHT22;7888;46.748;8.102;2023-10-09T11:12:44;28.80;37.70
15574;DHT22;7888;46.748;8.102;2023-10-09T11:15:36;29.00;38.10
15574;DHT22;7888;46.748;8.102;2023-10-09T11:18:13;29.10;38.00
15574;DHT22;7888;46.748;8.102;2023-10-09T11:20:57;29.20;38.30
15574;DHT22;7888;46.748;8.102;2023-10-09T11:23:33;29.30;37.80
15574;DHT22;7888;46.748;8.102;2023-10-09T11:26:00;29.40;37.60
15574;DHT22;7888;46.748;8.102;2023-10-09T11:29:09;29.60;37.60
15574;DHT22;7888;46.748;8.102;2023-10-09T11:32:07;29.80;36.80
15574;DHT22;7888;46.748;8.102;2023-10-09T11:34:36;29.90;36.90
15574;DHT22;7888;46.748;8.102;2023-10-09T11:37:12;30.00;36.80
15574;DHT22;7888;46.748;8.102;2023-10-09T11:39:41;30.10;36.20
15574;DHT22;7888;46.748;8.102;2023-10-09T11:42:20;30.30;36.40
15574;DHT22;7888;46.748;8.102;2023-10-09T11:45:06;30.40;35.60
15574;DHT22;7888;46.748;8.102;2023-10-09T11:48:17;30.40;35.00
15574;DHT22;7888;46.748;8.102;2023-10-09T11:51:15;30.50;35.00
15574;DHT22;7888;46.748;8.102;2023-10-09T11:53:44;30.60;34.50
15574;DHT22;7888;46.748;8.102;2023-10-09T11:56:15;30.60;34.80
15574;DHT22;7888;46.748;8.102;2023-10-09T11:58:47;30.60;34.80
15574;DHT22;7888;46.748;8.102;2023-10-09T12:01:15;30.70;34.80
15574;DHT22;7888;46.748;8.102;2023-10-09T12:03:43;30.80;34.60
15574;DHT22;7888;46.748;8.102;2023-10-09T12:06:15;30.80;34.80
15574;DHT22;7888;46.748;8.102;2023-10-09T12:08:45;30.90;34.80
15574;DHT22;7888;46.748;8.102;2023-10-09T12:11:14;30.90;35.30
15574;DHT22;7888;46.748;8.102;2023-10-09T12:13:51;31.00;35.70
15574;DHT22;7888;46.748;8.102;2023-10-09T12:16:24;31.00;35.70
15574;DHT22;7888;46.748;8.102;2023-10-09T12:18:56;31.10;35.70
15574;DHT22;7888;46.748;8.102;2023-10-09T12:21:22;31.20;35.30
15574;DHT22;7888;46.748;8.102;2023-10-09T12:23:49;31.30;36.10
15574;DHT22;7888;46.748;8.102;2023-10-09T12:26:15;31.50;35.30
15574;DHT22;7888;46.748;8.102;2023-10-09T12:28:41;31.60;34.90
15574;DHT22;7888;46.748;8.102;2023-10-09T12:31:14;31.70;34.50
15574;DHT22;7888;46.748;8.102;2023-10-09T12:33:41;31.70;34.30
15574;DHT22;7888;46.748;8.102;2023-10-09T12:36:16;31.90;34.00
15574;DHT22;7888;46.748;8.102;2023-10-09T12:38:48;31.90;33.20
15574;DHT22;7888;46.748;8.102;2023-10-09T12:41:18;32.10;33.90
15574;DHT22;7888;46.748;8.102;2023-10-09T12:43:56;32.30;34.10
15574;DHT22;7888;46.748;8.102;2023-10-09T12:46:25;32.50;33.70
15574;DHT22;7888;46.748;8.102;2023-10-09T12:48:54;32.60;33.40
15574;DHT22;7888;46.748;8.102;2023-10-09T12:51:21;32.70;33.00
15574;DHT22;7888;46.748;8.102;2023-10-09T12:53:51;32.90;33.50
15574;DHT22;7888;46.748;8.102;2023-10-09T12:56:24;32.90;33.40
15574;DHT22;7888;46.748;8.102;2023-10-09T12:59:02;33.00;32.70
15574;DHT22;7888;46.748;8.102;2023-10-09T13:01:42;33.10;32.40
15574;DHT22;7888;46.748;8.102;2023-10-09T13:04:13;33.10;31.90
15574;DHT22;7888;46.748;8.102;2023-10-09T13:06:46;33.20;32.10
15574;DHT22;7888;46.748;8.102;2023-10-09T13:09:16;33.30;31.60
15574;DHT22;7888;46.748;8.102;2023-10-09T13:12:00;33.30;30.20
15574;DHT22;7888;46.748;8.102;2023-10-09T13:14:31;33.40;31.70
15574;DHT22;7888;46.748;8.102;2023-10-09T13:16:59;33.50;31.40
15574;DHT22;7888;46.748;8.102;2023-10-09T13:19:25;33.60;31.60
15574;DHT22;7888;46.748;8.102;2023-10-09T13:21:51;33.60;30.50
15574;DHT22;7888;46.748;8.102;2023-10-09T13:24:17;33.80;30.20
15574;DHT22;7888;46.748;8.102;2023-10-09T13:26:43;33.80;30.00
15574;DHT22;7888;46.748;8.102;2023-10-09T13:29:12;33.90;29.90
15574;DHT22;7888;46.748;8.102;2023-10-09T13:31:39;34.00;30.10
15574;DHT22;7888;46.748;8.102;2023-10-09T13:34:12;34.10;30.40
15574;DHT22;7888;46.748;8.102;2023-10-09T13:36:41;34.20;30.50
15574;DHT22;7888;46.748;8.102;2023-10-09T13:39:19;34.30;30.10
15574;DHT22;7888;46.748;8.102;2023-10-09T13:41:52;34.30;30.40
15574;DHT22;7888;46.748;8.102;2023-10-09T13:44:32;34.40;30.30
15574;DHT22;7888;46.748;8.102;2023-10-09T13:47:01;34.50;30.20
15574;DHT22;7888;46.748;8.102;2023-10-09T13:49:31;34.50;29.90
15574;DHT22;7888;46.748;8.102;2023-10-09T13:51:58;34.60;30.00
15574;DHT22;7888;46.748;8.102;2023-10-09T13:54:27;34.70;30.00
15574;DHT22;7888;46.748;8.102;2023-10-09T13:56:59;34.80;30.00
15574;DHT22;7888;46.748;8.102;2023-10-09T13:59:25;34.80;29.40
15574;DHT22;7888;46.748;8.102;2023-10-09T14:01:52;34.80;29.50
15574;DHT22;7888;46.748;8.102;2023-10-09T14:04:23;34.80;28.90
15574;DHT22;7888;46.748;8.102;2023-10-09T14:06:52;34.90;28.50
15574;DHT22;7888;46.748;8.102;2023-10-09T14:09:26;34.90;28.50
15574;DHT22;7888;46.748;8.102;2023-10-09T14:11:57;34.90;28.70
15574;DHT22;7888;46.748;8.102;2023-10-09T14:14:41;35.00;28.50
15574;DHT22;7888;46.748;8.102;2023-10-09T14:17:16;35.00;29.00
15574;DHT22;7888;46.748;8.102;2023-10-09T14:19:51;35.00;29.00
15574;DHT22;7888;46.748;8.102;2023-10-09T14:22:23;35.00;28.50
15574;DHT22;7888;46.748;8.102;2023-10-09T14:24:53;35.10;28.70
15574;DHT22;7888;46.748;8.102;2023-10-09T14:27:26;35.10;28.60
15574;DHT22;7888;46.748;8.102;2023-10-09T14:29:56;35.10;28.00
15574;DHT22;7888;46.748;8.102;2023-10-09T14:32:24;35.10;28.00
15574;DHT22;7888;46.748;8.102;2023-10-09T14:34:55;35.10;27.50
15574;DHT22;7888;46.748;8.102;2023-10-09T14:37:26;35.10;28.10
15574;DHT22;7888;46.748;8.102;2023-10-09T14:39:53;35.10;28.50
15574;DHT22;7888;46.748;8.102;2023-10-09T14:42:20;35.10;28.40
15574;DHT22;7888;46.748;8.102;2023-10-09T14:44:48;35.10;28.40
15574;DHT22;7888;46.748;8.102;2023-10-09T14:47:15;35.00;28.70
15574;DHT22;7888;46.748;8.102;2023-10-09T14:49:47;35.00;28.80
15574;DHT22;7888;46.748;8.102;2023-10-09T14:52:14;34.90;28.70
15574;DHT22;7888;46.748;8.102;2023-10-09T14:54:46;34.90;28.90
15574;DHT22;7888;46.748;8.102;2023-10-09T14:57:13;34.90;29.20
15574;DHT22;7888;46.748;8.102;2023-10-09T14:59:39;34.80;29.20
15574;DHT22;7888;46.748;8.102;2023-10-09T15:02:05;34.80;29.20
15574;DHT22;7888;46.748;8.102;2023-10-09T15:04:33;34.70;29.40
15574;DHT22;7888;46.748;8.102;2023-10-09T15:07:02;34.60;28.90
15574;DHT22;7888;46.748;8.102;2023-10-09T15:09:32;34.50;29.00
15574;DHT22;7888;46.748;8.102;2023-10-09T15:12:00;34.40;28.60
15574;DHT22;7888;46.748;8.102;2023-10-09T15:14:26;34.30;28.20
15574;DHT22;7888;46.748;8.102;2023-10-09T15:16:52;34.20;28.40
15574;DHT22;7888;46.748;8.102;2023-10-09T15:19:17;34.20;29.10
15574;DHT22;7888;46.748;8.102;2023-10-09T15:21:44;34.10;29.30
15574;DHT22;7888;46.748;8.102;2023-10-09T15:24:11;34.00;29.40
15574;DHT22;7888;46.748;8.102;2023-10-09T15:26:48;33.90;29.10
15574;DHT22;7888;46.748;8.102;2023-10-09T15:29:24;33.90;28.80
15574;DHT22;7888;46.748;8.102;2023-10-09T15:31:56;33.80;28.70
15574;DHT22;7888;46.748;8.102;2023-10-09T15:34:33;33.70;28.50
15574;DHT22;7888;46.748;8.102;2023-10-09T15:37:02;33.70;29.20
15574;DHT22;7888;46.748;8.102;2023-10-09T15:39:29;33.60;29.20
15574;DHT22;7888;46.748;8.102;2023-10-09T15:41:57;33.50;29.10
15574;DHT22;7888;46.748;8.102;2023-10-09T15:44:23;33.30;29.10
15574;DHT22;7888;46.748;8.102;2023-10-09T15:46:51;33.20;29.90
15574;DHT22;7888;46.748;8.102;2023-10-09T15:49:28;33.10;29.50
15574;DHT22;7888;46.748;8.102;2023-10-09T15:51:56;32.90;29.00
15574;DHT22;7888;46.748;8.102;2023-10-09T15:54:23;32.80;29.10
15574;DHT22;7888;46.748;8.102;2023-10-09T15:56:49;32.60;29.20
15574;DHT22;7888;46.748;8.102;2023-10-09T15:59:15;32.50;29.30
15574;DHT22;7888;46.748;8.102;2023-10-09T16:01:42;32.40;29.60
15574;DHT22;7888;46.748;8.102;2023-10-09T16:04:11;32.20;29.90
15574;DHT22;7888;46.748;8.102;2023-10-09T16:06:37;32.20;30.20
15574;DHT22;7888;46.748;8.102;2023-10-09T16:09:07;32.00;30.40
15574;DHT22;7888;46.748;8.102;2023-10-09T16:11:46;31.90;30.70
15574;DHT22;7888;46.748;8.102;2023-10-09T16:14:13;31.70;31.10
15574;DHT22;7888;46.748;8.102;2023-10-09T16:16:41;31.60;31.40
15574;DHT22;7888;46.748;8.102;2023-10-09T16:19:10;31.50;31.10
15574;DHT22;7888;46.748;8.102;2023-10-09T16:21:37;31.40;31.20
15574;DHT22;7888;46.748;8.102;2023-10-09T16:24:04;31.30;31.10
15574;DHT22;7888;46.748;8.102;2023-10-09T16:26:35;31.20;31.30
15574;DHT22;7888;46.748;8.102;2023-10-09T16:29:16;31.10;31.60
15574;DHT22;7888;46.748;8.102;2023-10-09T16:31:42;30.90;31.50
15574;DHT22;7888;46.748;8.102;2023-10-09T16:34:08;30.80;31.70
15574;DHT22;7888;46.748;8.102;2023-10-09T16:36:34;30.70;31.90
15574;DHT22;7888;46.748;8.102;2023-10-09T16:39:04;30.60;32.00
15574;DHT22;7888;46.748;8.102;2023-10-09T16:41:30;30.50;32.30
15574;DHT22;7888;46.748;8.102;2023-10-09T16:44:03;30.40;32.40